Aviation Digital Data Service (ADDS)

Output produced by METARs form (0514 UTC 21 January 2019)
found at http://www.aviationweather.gov/metar/data/
 
Forecast for: ZYCC (CHANGCHUN , CN)
Text: TAF ZYCC 210303Z 2106/2206 30004MPS 6000 NSC TXM03/05Z TNM14/21Z
Forecast period: 0600 UTC 21 January 2019 to 0600 UTC 22 January 2019
Forecast type: FROM: standard forecast or significant change
Winds: from the WNW (300 degrees) at 9 MPH (8 knots; 4.1 m/s)
Visibility: 4 miles (6 km)
Ceiling: unknown
Clouds: missing
Weather: no significant weather forecast for this period